Latest Weather Observations for Yulara

IDD60801

Issued at 6:01 pm CST Wednesday 28 June 2017 (issued every 30 minutes, with the page automatically refreshed every 10 minutes)

About weather observations | Map of weather stations | Latest weather observations for NT | Other Formats
Station Details ID: 015635 Name: YULARA AIRPORT Lat: -25.19 Lon: 130.97 Height: 492.0 m
Data from the previous 72 hours. | See also: Recent months at Yulara
Date/Time
CST
Temp
°C
App
Temp
°C
Dew
Point
°C
Rel
Hum
%
Delta-T
°C
Wind Press
QNH
hPa
Press
MSL
hPa
Rain since
9am
mm
Dir  Spd
km/h
Gust
km/h
Spd
kts
Gust
kts
28/06:00pm 14.1 9.1 6.5 60 3.7 SSE 22 33 12 18 1025.7 1025.3 0.0
28/05:30pm 14.8 9.4 6.4 57 4.1 SSE 24 35 13 19 1025.1 1024.8 0.0
28/05:00pm 15.8 9.9 3.9 45 5.7 SSE 24 35 13 19 1024.6 1024.3 0.0
28/04:30pm 15.9 10.1 4.3 46 5.5 SSE 24 35 13 19 1024.4 1024.0 0.0
28/04:00pm 16.0 10.4 5.3 49 5.2 SSE 24 35 13 19 1024.2 1023.8 0.0
28/03:30pm 16.4 10.9 5.7 49 5.3 SSE 24 37 13 20 1023.9 1023.5 0.0
28/03:00pm 16.1 10.2 5.7 50 5.1 SSE 26 43 14 23 1023.9 1023.5 0.0
28/02:30pm 16.6 10.3 5.9 49 5.3 SSE 28 37 15 20 1023.8 1023.4 0.0
28/02:00pm 16.8 12.1 6.0 49 5.4 SSE 20 28 11 15 1024.0 1023.6 0.0
28/01:30pm 16.3 11.5 5.6 49 5.3 SSE 20 35 11 19 1024.2 1023.8 0.0
28/01:00pm 16.2 11.0 5.5 49 5.3 SSE 22 33 12 18 1024.6 1024.3 0.0
28/12:30pm 15.4 10.9 6.9 57 4.3 SSE 20 32 11 17 1025.0 1024.7 0.0
28/12:00pm 15.4 10.4 7.9 61 3.8 SSE 24 35 13 19 1025.5 1025.1 0.0
28/11:30am 14.3 9.1 7.1 62 3.6 SSE 24 33 13 18 1025.8 1025.4 0.0
28/11:00am 14.0 9.0 8.0 67 3.1 SSE 24 33 13 18 1025.9 1025.5 0.0
28/10:30am 13.0 8.0 8.1 72 2.5 SSE 24 30 13 16 1025.9 1025.5 0.0
28/10:00am 13.2 8.8 9.1 76 2.1 SSE 22 32 12 17 1025.9 1025.5 0.0
28/09:30am 11.4 7.3 8.6 83 1.4 SSE 20 28 11 15 1025.6 1025.2 0.0
28/09:00am 11.0 6.8 8.4 84 1.3 SSE 20 28 11 15 1025.2 1024.9 0.8
28/08:30am 10.8 7.3 8.6 86 1.1 SSE 17 24 9 13 1024.8 1024.5 0.8
28/08:00am 10.4 7.7 8.8 90 0.8 SSE 13 19 7 10 1024.6 1024.3 0.8
28/07:30am 9.9 8.0 9.1 95 0.4 SSE 9 15 5 8 1024.2 1023.8 0.8
28/07:00am 9.2 7.3 9.1 99 0.1 S 9 13 5 7 1023.8 1023.4 0.8
28/06:30am 8.7 7.3 8.7 100 0.0 S 6 7 3 4 1023.7 1023.3 0.8
28/06:00am 8.5 7.0 8.4 99 0.0 S 6 7 3 4 1023.5 1023.1 0.8
28/05:30am 8.5 6.8 8.4 99 0.0 S 7 9 4 5 1023.3 1022.9 0.8
28/05:00am 8.7 7.2 8.3 97 0.2 S 6 7 3 4 1023.0 1022.7 0.8
28/04:30am 8.8 7.1 8.2 96 0.3 SSE 7 9 4 5 1022.9 1022.6 0.8
28/04:00am 10.1 7.9 9.2 94 0.5 SSE 11 17 6 9 1022.8 1022.4 0.8
28/03:30am 9.8 7.2 9.3 97 0.3 S 13 19 7 10 1022.8 1022.4 0.8
28/03:00am 8.5 6.0 8.4 99 0.0 S 11 13 6 7 1022.7 1022.3 0.8
28/02:30am 9.3 7.4 9.2 99 0.1 E 9 13 5 7 1022.6 1022.2 0.8
28/02:00am 8.7 6.2 8.4 98 0.1 SSW 11 13 6 7 1022.5 1022.1 0.8
28/01:30am 9.4 6.8 9.3 99 0.1 SSW 13 15 7 8 1022.4 1022.0 0.8
28/01:00am 9.7 8.3 9.4 98 0.2 S 7 9 4 5 1022.5 1022.1 0.8
28/12:30am 10.1 8.6 9.3 95 0.4 SE 7 11 4 6 1022.4 1022.0 0.8
28/12:00am 11.1 9.6 10.6 97 0.3 S 9 13 5 7 1022.5 1022.1 0.8
 
Date/Time
CST
Temp
°C
App
Temp
°C
Dew
Point
°C
Rel
Hum
%
Delta-T
°C
Wind Press
QNH
hPa
Press
MSL
hPa
Rain since
9am
mm
Dir  Spd
km/h
Gust
km/h
Spd
kts
Gust
kts
27/11:30pm 11.2 9.7 10.7 97 0.3 SSE 9 13 5 7 1022.5 1022.1 0.8
27/11:00pm 10.3 8.3 10.1 99 0.1 S 11 13 6 7 1022.5 1022.1 0.8
27/10:30pm 10.6 9.5 10.1 97 0.3 SSW 6 7 3 4 1022.4 1022.0 0.8
27/10:00pm 11.1 10.0 10.6 97 0.3 SSW 7 9 4 5 1022.3 1021.9 0.8
27/09:30pm 11.5 10.1 10.9 96 0.3 S 9 11 5 6 1022.2 1021.8 0.8
27/09:00pm 11.6 10.2 11.0 96 0.3 S 9 11 5 6 1022.1 1021.7 0.8
27/08:30pm 11.1 9.8 10.0 93 0.6 SSE 7 9 4 5 1021.8 1021.4 0.8
27/08:00pm 11.7 10.7 10.3 91 0.7 SE 6 9 3 5 1021.5 1021.1 0.8
27/07:30pm 12.7 11.5 10.4 86 1.2 SE 7 7 4 4 1021.3 1020.9 0.8
27/07:00pm 13.5 12.3 10.3 81 1.7 SSE 7 9 4 5 1021.2 1020.8 0.8
27/06:30pm 13.9 11.9 10.1 78 2.0 S 11 15 6 8 1020.8 1020.4 0.8
27/06:00pm 14.0 11.2 10.0 77 2.1 S 15 19 8 10 1020.5 1020.1 0.8
27/05:30pm 14.2 11.1 10.4 78 2.0 S 17 24 9 13 1020.1 1019.7 0.8
27/05:00pm 14.6 11.2 10.6 77 2.2 S 19 24 10 13 1019.7 1019.3 0.8
27/04:30pm 15.2 13.1 11.2 77 2.2 S 13 17 7 9 1019.6 1019.2 0.8
27/04:00pm 15.5 13.8 11.1 75 2.4 SSE 11 19 6 10 1019.1 1018.6 0.8
27/03:30pm 15.4 14.0 10.8 74 2.5 SE 9 15 5 8 1019.3 1018.8 0.8
27/03:08pm 15.3 14.0 11.3 77 2.2 SSE 9 13 5 7 1019.3 1018.8 0.8
27/03:00pm 15.1 13.4 11.1 77 2.2 SSE 11 15 6 8 1019.4 1019.0 0.8
27/02:30pm 14.7 12.5 10.7 77 2.2 SE 13 17 7 9 1019.3 1018.8 0.8
27/02:00pm 14.5 12.4 11.1 80 1.9 SE 13 17 7 9 1019.3 1018.8 0.8
27/01:30pm 13.5 11.5 10.3 81 1.7 SE 11 17 6 9 1019.6 1019.2 0.8
27/01:03pm 13.7 11.7 11.6 87 1.1 SSE 13 19 7 10 1020.2 1019.8 0.8
27/01:00pm 13.4 10.9 10.9 85 1.3 SE 15 19 8 10 1020.3 1019.9 0.8
27/12:42pm 13.0 10.9 11.2 89 1.0 SE 13 17 7 9 1020.4 1020.0 0.8
27/12:30pm 12.3 9.8 11.0 92 0.7 ESE 15 19 8 10 1020.7 1020.3 0.8
27/12:00pm 11.6 9.1 11.0 96 0.3 S 15 22 8 12 1021.5 1021.1 0.8
27/11:57am 11.6 8.7 11.1 97 0.3 S 17 22 9 12 1021.5 1021.1 0.8
27/11:32am 11.4 9.0 11.4 100 0.0 S 15 20 8 11 1021.9 1021.5 0.8
27/11:30am 11.4 9.0 11.4 100 0.0 SSW 15 20 8 11 1021.9 1021.5 0.8
27/11:00am 11.2 9.1 11.0 99 0.1 SSW 13 17 7 9 1022.2 1021.8 0.4
27/10:30am 11.4 9.2 10.8 96 0.3 SSW 13 17 7 9 1022.2 1021.8 0.4
27/10:00am 11.1 9.3 10.9 99 0.1 S 11 17 6 9 1021.8 1021.4 0.2
27/09:30am 10.6 9.1 10.6 100 0.0 SSW 9 11 5 6 1022.0 1021.6 0.2
27/09:00am 10.3 8.7 10.3 100 0.0 ESE 9 15 5 8 1020.7 1020.3 1.8
27/08:30am 10.2 8.2 10.2 100 0.0 SE 11 17 6 9 1020.4 1020.0 1.6
27/08:00am 10.1 8.4 10.0 99 0.1 ESE 9 13 5 7 1020.3 1019.9 1.4
27/07:30am 10.0 7.9 9.9 99 0.1 SE 11 17 6 9 1019.9 1019.5 1.2
27/07:00am 10.1 8.1 10.0 99 0.1 SE 11 19 6 10 1019.8 1019.4 1.2
27/06:30am 10.1 7.7 10.1 100 0.0 SSW 13 17 7 9 1020.3 1019.9 1.2
27/06:00am 10.0 7.9 9.9 99 0.1 SE 11 15 6 8 1019.4 1019.0 1.2
27/05:30am 10.0 8.0 10.0 100 0.0 SE 11 15 6 8 1019.4 1019.0 1.2
27/05:00am 10.0 7.6 9.9 99 0.1 SSE 13 19 7 10 1019.5 1019.1 1.2
27/04:30am 10.1 8.4 9.8 98 0.2 SSE 9 15 5 8 1020.0 1019.6 1.2
27/04:00am 10.1 7.3 10.0 99 0.1 SE 15 19 8 10 1019.6 1019.2 1.2
27/03:30am 9.9 7.4 9.8 99 0.1 SSE 13 19 7 10 1019.8 1019.4 1.2
27/03:00am 10.1 8.0 9.8 98 0.2 SSE 11 17 6 9 1019.9 1019.5 1.2
27/02:30am 10.2 7.8 10.1 99 0.1 SE 13 15 7 8 1020.2 1019.8 1.2
27/02:00am 10.4 8.1 10.4 100 0.0 SSE 13 19 7 10 1020.2 1019.8 1.2
27/01:50am 10.4 7.7 10.4 100 0.0 SE 15 20 8 11 1019.9 1019.5 1.2
27/01:30am 10.5 7.8 10.5 100 0.0 SSE 15 20 8 11 1020.0 1019.6 1.2
27/01:00am 10.5 8.2 10.5 100 0.0 SSE 13 17 7 9 1020.3 1019.9 1.2
27/12:30am 10.7 9.2 10.5 99 0.1 SSE 9 13 5 7 1020.6 1020.2 1.2
27/12:00am 11.0 9.2 10.7 98 0.2 SE 11 15 6 8 1020.7 1020.3 1.2
 
Date/Time
CST
Temp
°C
App
Temp
°C
Dew
Point
°C
Rel
Hum
%
Delta-T
°C
Wind Press
QNH
hPa
Press
MSL
hPa
Rain since
9am
mm
Dir  Spd
km/h
Gust
km/h
Spd
kts
Gust
kts
26/11:30pm 11.1 8.9 10.9 99 0.1 SE 13 17 7 9 1020.6 1020.2 1.2
26/11:00pm 11.3 9.9 11.0 98 0.2 ESE 9 13 5 7 1021.1 1020.6 1.2
26/10:30pm 11.4 9.6 10.9 97 0.3 E 11 13 6 7 1021.2 1020.8 1.2
26/10:00pm 11.4 9.7 11.1 98 0.2 E 11 15 6 8 1020.9 1020.5 1.2
26/09:30pm 11.2 7.6 10.7 97 0.3 ENE 20 24 11 13 1020.7 1020.3 1.2
26/09:13pm 11.3 8.3 10.8 97 0.3 E 17 22 9 12 1021.4 1021.0 1.2
26/09:00pm 11.2 8.2 10.6 96 0.3 ENE 17 20 9 11 1021.4 1021.0 1.2
26/08:30pm 11.5 8.5 10.6 94 0.5 E 17 24 9 13 1020.7 1020.3 1.2
26/08:00pm 11.5 8.5 10.6 94 0.5 E 17 24 9 13 1020.7 1020.3 1.2
26/07:30pm 11.6 8.5 10.3 92 0.7 E 17 24 9 13 1021.1 1020.6 1.0
26/07:00pm 11.8 9.1 10.4 91 0.7 E 15 20 8 11 1021.1 1020.6 1.0
26/06:30pm 12.0 9.3 10.4 90 0.8 E 15 20 8 11 1021.3 1020.9 1.0
26/06:00pm 12.3 9.5 9.9 85 1.3 ESE 15 22 8 12 1020.4 1020.0 1.0
26/05:30pm 12.5 11.0 10.7 89 1.0 SW 9 13 5 7 1021.2 1020.8 1.0
26/05:00pm 13.4 11.7 9.8 79 1.9 ESE 9 15 5 8 1021.7 1021.3 0.2
26/04:30pm 13.7 11.4 10.3 80 1.8 ESE 13 17 7 9 1021.1 1020.6 0.2
26/04:00pm 14.1 11.7 9.9 76 2.2 ESE 13 15 7 8 1020.9 1020.5 0.2
26/03:30pm 14.1 12.4 9.9 76 2.2 SE 9 15 5 8 1021.4 1021.0 0.2
26/03:00pm 15.0 11.7 8.0 63 3.6 ESE 15 20 8 11 1020.4 1020.0 0.0
26/02:30pm 15.3 11.6 8.1 62 3.7 ESE 17 24 9 13 1020.2 1019.8 0.0
26/02:00pm 15.2 11.1 8.0 62 3.7 ESE 19 28 10 15 1020.6 1020.2 0.0
26/01:30pm 15.0 10.9 7.8 62 3.7 E 19 24 10 13 1020.8 1020.4 0.0
26/01:00pm 15.2 11.4 8.9 66 3.3 E 19 22 10 12 1021.2 1020.8 0.0
26/12:30pm 14.5 8.6 7.5 63 3.5 E 28 35 15 19 1020.6 1020.2 0.0
26/12:00pm 14.1 8.8 8.3 68 3.0 E 26 35 14 19 1020.9 1020.5 0.0
26/11:30am 13.2 7.2 8.5 73 2.4 E 30 39 16 21 1021.3 1020.9 0.0
26/11:00am 13.6 8.6 8.0 69 2.8 E 24 33 13 18 1022.0 1021.6 0.0
26/10:30am 13.0 7.7 8.5 74 2.3 ESE 26 35 14 19 1021.6 1021.2 0.0
26/10:00am 12.9 7.4 7.4 69 2.8 ESE 26 39 14 21 1021.6 1021.2 0.0
26/09:30am 12.5 8.1 7.4 71 2.5 ESE 20 32 11 17 1021.7 1021.3 0.0
26/09:00am 12.2 7.9 7.7 74 2.2 ESE 20 32 11 17 1021.1 1020.6 0.0
26/08:30am 12.2 7.9 7.1 71 2.5 SE 19 26 10 14 1021.1 1020.6 0.0
26/08:00am 12.3 7.8 6.8 69 2.7 ESE 20 28 11 15 1020.4 1020.0 0.0
26/07:30am 12.2 8.2 6.5 68 2.8 ESE 17 22 9 12 1020.1 1019.7 0.0
26/07:00am 12.2 7.6 6.5 68 2.8 ESE 20 26 11 14 1019.6 1019.2 0.0
26/06:30am 12.1 7.7 6.4 68 2.8 ESE 19 26 10 14 1019.2 1018.7 0.0
26/06:00am 12.2 7.7 6.3 67 2.9 ESE 19 24 10 13 1019.1 1018.6 0.0
26/05:30am 12.6 7.9 6.0 64 3.2 ESE 20 30 11 16 1019.1 1018.6 0.0
26/05:00am 12.8 8.1 6.2 64 3.2 ESE 20 28 11 15 1019.0 1018.5 0.0
26/04:30am 13.1 7.7 6.2 63 3.4 E 24 35 13 19 1019.0 1018.5 0.0
26/04:00am 13.4 8.7 6.0 61 3.6 ESE 20 30 11 16 1019.5 1019.1 0.0
26/03:30am 13.8 8.7 6.2 60 3.7 ESE 22 33 12 18 1019.1 1018.6 0.0
26/03:00am 14.2 8.8 6.3 59 3.9 E 24 35 13 19 1019.5 1019.1 0.0
26/02:30am 14.5 9.5 6.3 58 4.0 ESE 22 32 12 17 1019.5 1019.1 0.0
26/02:00am 14.3 9.6 6.2 58 4.0 ESE 20 28 11 15 1019.8 1019.4 0.0
26/01:30am 14.0 9.8 5.9 58 3.9 ESE 17 24 9 13 1019.8 1019.4 0.0
26/01:00am 14.0 10.2 5.9 58 4.0 ESE 15 22 8 12 1020.0 1019.6 0.0
26/12:30am 14.5 10.3 5.8 56 4.2 SE 17 24 9 13 1020.1 1019.7 0.0
26/12:00am 14.5 10.7 5.8 56 4.2 SE 15 22 8 12 1020.4 1020.0 0.0
 
Date/Time
CST
Temp
°C
App
Temp
°C
Dew
Point
°C
Rel
Hum
%
Delta-T
°C
Wind Press
QNH
hPa
Press
MSL
hPa
Rain since
9am
mm
Dir  Spd
km/h
Gust
km/h
Spd
kts
Gust
kts
25/11:30pm 14.5 10.3 5.8 56 4.2 SE 17 20 9 11 1020.4 1020.0 0.0
25/11:00pm 14.6 11.2 5.9 56 4.3 SE 13 17 7 9 1020.3 1019.9 0.0
25/10:30pm 14.6 10.8 5.7 55 4.3 SE 15 19 8 10 1020.3 1019.9 0.0
25/10:00pm 14.8 12.0 5.3 53 4.6 SE 9 13 5 7 1020.2 1019.8 0.0
25/09:30pm 15.7 12.6 5.6 51 5.0 SSE 11 17 6 9 1020.0 1019.6 0.0
25/09:00pm 16.5 13.1 5.8 49 5.3 SE 13 17 7 9 1019.9 1019.5 0.0
25/08:30pm 17.0 13.6 5.9 48 5.5 SE 13 19 7 10 1019.7 1019.3 0.0
25/08:00pm 17.4 14.0 6.0 47 5.7 SSE 13 19 7 10 1019.4 1019.0 0.0
25/07:30pm 17.5 14.5 6.1 47 5.7 SSE 11 17 6 9 1019.1 1018.6 0.0
25/07:00pm 17.7 14.8 6.3 47 5.8 SSE 11 17 6 9 1018.4 1018.0 0.0
25/06:30pm 18.2 15.2 6.1 45 6.1 SE 11 15 6 8 1018.5 1018.1 0.0

Other Formats:

Comma delimited format used in spreadsheet applications
http://www.bom.gov.au/fwo/IDD60801/IDD60801.94462.axf

JavaScript Object Notation format (JSON) in row-major order
http://www.bom.gov.au/fwo/IDD60801/IDD60801.94462.json